sensor_id;sensor_type;location;lat;lon;timestamp;temperature;humidity
18648;DHT22;9453;50.294;18.644;2024-01-10T05:03:29;-11.40;99.10
18648;DHT22;9453;50.294;18.644;2024-01-10T05:05:56;-11.60;98.10
18648;DHT22;9453;50.294;18.644;2024-01-10T05:08:22;-11.60;98.50
18648;DHT22;9453;50.294;18.644;2024-01-10T05:10:50;-11.50;99.20
18648;DHT22;9453;50.294;18.644;2024-01-10T05:13:17;-11.40;99.60
18648;DHT22;9453;50.294;18.644;2024-01-10T05:15:44;-11.30;99.90
18648;DHT22;9453;50.294;18.644;2024-01-10T05:18:11;-11.20;99.90
18648;DHT22;9453;50.294;18.644;2024-01-10T05:20:39;-11.20;99.80
18648;DHT22;9453;50.294;18.644;2024-01-10T05:23:06;-11.10;99.90
18648;DHT22;9453;50.294;18.644;2024-01-10T05:25:33;-11.10;99.40
18648;DHT22;9453;50.294;18.644;2024-01-10T05:28:00;-11.30;98.30
18648;DHT22;9453;50.294;18.644;2024-01-10T05:30:27;-11.10;98.50
18648;DHT22;9453;50.294;18.644;2024-01-10T05:32:54;-11.20;99.50
18648;DHT22;9453;50.294;18.644;2024-01-10T05:35:21;-11.20;99.60
18648;DHT22;9453;50.294;18.644;2024-01-10T05:37:49;-11.30;98.80
18648;DHT22;9453;50.294;18.644;2024-01-10T05:40:16;-11.10;99.00
18648;DHT22;9453;50.294;18.644;2024-01-10T05:42:44;-11.20;98.50
18648;DHT22;9453;50.294;18.644;2024-01-10T05:45:11;-11.20;98.60
18648;DHT22;9453;50.294;18.644;2024-01-10T05:47:38;-11.20;98.80
18648;DHT22;9453;50.294;18.644;2024-01-10T05:50:06;-11.10;99.20
18648;DHT22;9453;50.294;18.644;2024-01-10T05:52:33;-11.20;98.40
18648;DHT22;9453;50.294;18.644;2024-01-10T05:55:02;-11.10;98.60
18648;DHT22;9453;50.294;18.644;2024-01-10T05:57:29;-11.10;98.70
18648;DHT22;9453;50.294;18.644;2024-01-10T05:59:57;-11.10;99.90
18648;DHT22;9453;50.294;18.644;2024-01-10T06:02:24;-11.20;99.50
18648;DHT22;9453;50.294;18.644;2024-01-10T06:04:52;-11.30;98.80
18648;DHT22;9453;50.294;18.644;2024-01-10T06:07:19;-11.30;99.50
18648;DHT22;9453;50.294;18.644;2024-01-10T06:09:47;-11.30;99.10
18648;DHT22;9453;50.294;18.644;2024-01-10T06:12:15;-11.40;98.80
18648;DHT22;9453;50.294;18.644;2024-01-10T06:14:43;-11.30;98.90
18648;DHT22;9453;50.294;18.644;2024-01-10T06:17:10;-11.30;98.30
18648;DHT22;9453;50.294;18.644;2024-01-10T06:19:37;-11.30;98.30
18648;DHT22;9453;50.294;18.644;2024-01-10T06:22:05;-11.10;98.90
18648;DHT22;9453;50.294;18.644;2024-01-10T06:24:32;-11.20;98.80
18648;DHT22;9453;50.294;18.644;2024-01-10T06:26:59;-11.20;98.80
18648;DHT22;9453;50.294;18.644;2024-01-10T06:29:27;-11.10;98.70
18648;DHT22;9453;50.294;18.644;2024-01-10T06:31:54;-11.20;99.60
18648;DHT22;9453;50.294;18.644;2024-01-10T06:34:22;-11.20;98.80
18648;DHT22;9453;50.294;18.644;2024-01-10T06:36:49;-11.10;99.10
18648;DHT22;9453;50.294;18.644;2024-01-10T06:39:15;-11.20;98.50
18648;DHT22;9453;50.294;18.644;2024-01-10T06:41:46;-11.20;99.20
18648;DHT22;9453;50.294;18.644;2024-01-10T06:44:13;-11.10;99.90
18648;DHT22;9453;50.294;18.644;2024-01-10T06:46:41;-11.20;99.60
18648;DHT22;9453;50.294;18.644;2024-01-10T06:49:08;-11.20;99.30
18648;DHT22;9453;50.294;18.644;2024-01-10T06:51:35;-11.10;99.80
18648;DHT22;9453;50.294;18.644;2024-01-10T06:54:02;-11.10;99.90
18648;DHT22;9453;50.294;18.644;2024-01-10T06:56:29;-11.00;99.90
18648;DHT22;9453;50.294;18.644;2024-01-10T06:58:56;-10.90;99.90
18648;DHT22;9453;50.294;18.644;2024-01-10T07:01:23;-10.90;99.90
18648;DHT22;9453;50.294;18.644;2024-01-10T07:03:52;-10.90;99.90
18648;DHT22;9453;50.294;18.644;2024-01-10T07:06:20;-10.80;99.90
18648;DHT22;9453;50.294;18.644;2024-01-10T07:08:48;-10.80;99.90
18648;DHT22;9453;50.294;18.644;2024-01-10T07:11:15;-10.70;99.90
18648;DHT22;9453;50.294;18.644;2024-01-10T07:13:42;-10.70;99.90
18648;DHT22;9453;50.294;18.644;2024-01-10T07:16:10;-10.70;99.90
18648;DHT22;9453;50.294;18.644;2024-01-10T07:18:37;-10.70;99.90
18648;DHT22;9453;50.294;18.644;2024-01-10T07:21:05;-10.60;99.90
18648;DHT22;9453;50.294;18.644;2024-01-10T07:23:35;-10.50;99.90
18648;DHT22;9453;50.294;18.644;2024-01-10T07:26:04;-10.50;99.90
18648;DHT22;9453;50.294;18.644;2024-01-10T07:28:31;-10.40;99.90
18648;DHT22;9453;50.294;18.644;2024-01-10T07:30:58;-10.40;99.90
18648;DHT22;9453;50.294;18.644;2024-01-10T07:33:26;-10.30;99.90
18648;DHT22;9453;50.294;18.644;2024-01-10T07:35:53;-10.20;99.90
18648;DHT22;9453;50.294;18.644;2024-01-10T07:38:22;-10.20;99.90
18648;DHT22;9453;50.294;18.644;2024-01-10T07:40:49;-10.20;99.90
18648;DHT22;9453;50.294;18.644;2024-01-10T07:43:15;-10.10;99.90
18648;DHT22;9453;50.294;18.644;2024-01-10T07:45:43;-10.10;99.90
18648;DHT22;9453;50.294;18.644;2024-01-10T07:48:10;-10.10;99.90
18648;DHT22;9453;50.294;18.644;2024-01-10T07:50:37;-9.90;99.90
18648;DHT22;9453;50.294;18.644;2024-01-10T07:53:04;-9.90;99.90
18648;DHT22;9453;50.294;18.644;2024-01-10T07:55:32;-9.90;99.90
18648;DHT22;9453;50.294;18.644;2024-01-10T07:58:00;-9.90;99.90
18648;DHT22;9453;50.294;18.644;2024-01-10T08:00:27;-10.00;99.90
18648;DHT22;9453;50.294;18.644;2024-01-10T08:02:55;-10.00;99.90
18648;DHT22;9453;50.294;18.644;2024-01-10T08:05:23;-9.90;99.90
18648;DHT22;9453;50.294;18.644;2024-01-10T08:07:50;-9.90;99.90
18648;DHT22;9453;50.294;18.644;2024-01-10T08:10:18;-9.90;99.90
18648;DHT22;9453;50.294;18.644;2024-01-10T08:12:47;-9.80;99.90
18648;DHT22;9453;50.294;18.644;2024-01-10T08:15:14;-9.70;99.90
18648;DHT22;9453;50.294;18.644;2024-01-10T08:17:41;-9.70;99.90
18648;DHT22;9453;50.294;18.644;2024-01-10T08:20:09;-9.60;99.90
18648;DHT22;9453;50.294;18.644;2024-01-10T08:22:36;-9.50;99.90
18648;DHT22;9453;50.294;18.644;2024-01-10T08:25:04;-9.40;99.90
18648;DHT22;9453;50.294;18.644;2024-01-10T08:27:31;-9.30;99.90
18648;DHT22;9453;50.294;18.644;2024-01-10T08:30:00;-9.20;99.90
18648;DHT22;9453;50.294;18.644;2024-01-10T08:32:30;-9.10;99.90
18648;DHT22;9453;50.294;18.644;2024-01-10T08:34:57;-9.00;99.90
18648;DHT22;9453;50.294;18.644;2024-01-10T08:37:24;-8.90;99.90
18648;DHT22;9453;50.294;18.644;2024-01-10T08:39:51;-8.90;99.90
18648;DHT22;9453;50.294;18.644;2024-01-10T08:42:18;-8.80;99.90
18648;DHT22;9453;50.294;18.644;2024-01-10T08:44:45;-8.70;99.90
18648;DHT22;9453;50.294;18.644;2024-01-10T08:47:14;-8.60;99.90
18648;DHT22;9453;50.294;18.644;2024-01-10T08:49:41;-8.50;99.90
18648;DHT22;9453;50.294;18.644;2024-01-10T08:52:07;-8.40;99.90
18648;DHT22;9453;50.294;18.644;2024-01-10T08:54:35;-8.40;99.90
18648;DHT22;9453;50.294;18.644;2024-01-10T08:57:02;-8.30;99.90
18648;DHT22;9453;50.294;18.644;2024-01-10T08:59:29;-8.20;99.90
18648;DHT22;9453;50.294;18.644;2024-01-10T09:01:56;-8.20;99.90
18648;DHT22;9453;50.294;18.644;2024-01-10T09:04:24;-8.10;99.90
18648;DHT22;9453;50.294;18.644;2024-01-10T09:06:52;-7.90;99.90
18648;DHT22;9453;50.294;18.644;2024-01-10T09:09:19;-7.80;99.90
18648;DHT22;9453;50.294;18.644;2024-01-10T09:11:46;-7.90;99.90
18648;DHT22;9453;50.294;18.644;2024-01-10T09:14:13;-7.80;99.90
18648;DHT22;9453;50.294;18.644;2024-01-10T09:16:40;-7.70;99.90
18648;DHT22;9453;50.294;18.644;2024-01-10T09:19:07;-7.60;99.90
18648;DHT22;9453;50.294;18.644;2024-01-10T09:21:36;-7.50;99.90
18648;DHT22;9453;50.294;18.644;2024-01-10T09:24:04;-7.60;99.90
18648;DHT22;9453;50.294;18.644;2024-01-10T09:26:34;-7.50;99.90
18648;DHT22;9453;50.294;18.644;2024-01-10T09:29:01;-7.40;99.90
18648;DHT22;9453;50.294;18.644;2024-01-10T09:31:28;-7.30;99.90
18648;DHT22;9453;50.294;18.644;2024-01-10T09:33:55;-7.20;99.90
18648;DHT22;9453;50.294;18.644;2024-01-10T09:36:22;-7.10;99.90
18648;DHT22;9453;50.294;18.644;2024-01-10T09:38:51;-7.00;99.90
18648;DHT22;9453;50.294;18.644;2024-01-10T09:41:19;-6.90;99.90
18648;DHT22;9453;50.294;18.644;2024-01-10T09:43:46;-6.80;99.90
18648;DHT22;9453;50.294;18.644;2024-01-10T09:46:14;-6.70;99.90
18648;DHT22;9453;50.294;18.644;2024-01-10T09:48:43;-6.60;99.90
18648;DHT22;9453;50.294;18.644;2024-01-10T09:51:11;-6.60;99.90
18648;DHT22;9453;50.294;18.644;2024-01-10T09:53:43;-6.50;99.90
18648;DHT22;9453;50.294;18.644;2024-01-10T09:56:12;-6.40;99.90
18648;DHT22;9453;50.294;18.644;2024-01-10T09:58:39;-6.30;99.90
18648;DHT22;9453;50.294;18.644;2024-01-10T10:01:08;-6.30;99.90
18648;DHT22;9453;50.294;18.644;2024-01-10T10:03:36;-6.20;99.90
18648;DHT22;9453;50.294;18.644;2024-01-10T10:06:04;-6.20;99.90
18648;DHT22;9453;50.294;18.644;2024-01-10T10:08:31;-6.10;99.90
18648;DHT22;9453;50.294;18.644;2024-01-10T10:10:58;-6.00;99.90
18648;DHT22;9453;50.294;18.644;2024-01-10T10:13:28;-5.90;99.90
18648;DHT22;9453;50.294;18.644;2024-01-10T10:15:59;-5.80;99.90
18648;DHT22;9453;50.294;18.644;2024-01-10T10:18:26;-5.80;99.90
18648;DHT22;9453;50.294;18.644;2024-01-10T10:21:10;-5.80;99.90
18648;DHT22;9453;50.294;18.644;2024-01-10T10:23:37;-5.70;99.90
18648;DHT22;9453;50.294;18.644;2024-01-10T10:26:12;-5.60;99.90
18648;DHT22;9453;50.294;18.644;2024-01-10T10:28:46;-5.60;99.90
18648;DHT22;9453;50.294;18.644;2024-01-10T10:31:13;-5.50;99.90
18648;DHT22;9453;50.294;18.644;2024-01-10T10:33:40;-5.50;99.90
18648;DHT22;9453;50.294;18.644;2024-01-10T10:36:07;-5.40;99.90
18648;DHT22;9453;50.294;18.644;2024-01-10T10:38:35;-5.30;99.90
18648;DHT22;9453;50.294;18.644;2024-01-10T10:41:05;-5.20;99.90
18648;DHT22;9453;50.294;18.644;2024-01-10T10:43:34;-5.10;99.90
18648;DHT22;9453;50.294;18.644;2024-01-10T10:46:04;-5.10;99.90
18648;DHT22;9453;50.294;18.644;2024-01-10T10:48:33;-5.10;99.90
18648;DHT22;9453;50.294;18.644;2024-01-10T10:51:04;-4.90;99.90
18648;DHT22;9453;50.294;18.644;2024-01-10T10:53:33;-4.90;99.90
18648;DHT22;9453;50.294;18.644;2024-01-10T10:56:03;-4.90;99.90
18648;DHT22;9453;50.294;18.644;2024-01-10T10:58:32;-4.80;99.90
18648;DHT22;9453;50.294;18.644;2024-01-10T11:01:00;-4.70;99.90
18648;DHT22;9453;50.294;18.644;2024-01-10T11:03:30;-4.70;99.90
18648;DHT22;9453;50.294;18.644;2024-01-10T11:05:58;-4.60;99.90
18648;DHT22;9453;50.294;18.644;2024-01-10T11:08:29;-4.50;99.90
18648;DHT22;9453;50.294;18.644;2024-01-10T11:10:59;-4.40;99.90
18648;DHT22;9453;50.294;18.644;2024-01-10T11:13:28;-4.40;99.90
18648;DHT22;9453;50.294;18.644;2024-01-10T11:22:07;-4.30;99.90
18648;DHT22;9453;50.294;18.644;2024-01-10T11:24:38;-4.30;99.90
18648;DHT22;9453;50.294;18.644;2024-01-10T11:27:14;-4.10;99.90
18648;DHT22;9453;50.294;18.644;2024-01-10T11:29:42;-4.10;99.90
18648;DHT22;9453;50.294;18.644;2024-01-10T11:32:14;-3.90;99.90
18648;DHT22;9453;50.294;18.644;2024-01-10T11:34:54;-3.90;99.90
18648;DHT22;9453;50.294;18.644;2024-01-10T11:37:21;-3.90;99.90
18648;DHT22;9453;50.294;18.644;2024-01-10T11:39:50;-3.80;99.90
18648;DHT22;9453;50.294;18.644;2024-01-10T11:42:22;-3.70;99.90
18648;DHT22;9453;50.294;18.644;2024-01-10T11:44:50;-3.60;99.90
18648;DHT22;9453;50.294;18.644;2024-01-10T11:47:17;-3.60;99.90
18648;DHT22;9453;50.294;18.644;2024-01-10T11:50:02;-3.50;99.90
18648;DHT22;9453;50.294;18.644;2024-01-10T11:52:33;-3.50;99.90
18648;DHT22;9453;50.294;18.644;2024-01-10T11:55:00;-3.40;99.90
18648;DHT22;9453;50.294;18.644;2024-01-10T11:57:30;-3.40;99.90
18648;DHT22;9453;50.294;18.644;2024-01-10T11:59:58;-3.30;99.90
18648;DHT22;9453;50.294;18.644;2024-01-10T12:02:27;-3.30;99.90
18648;DHT22;9453;50.294;18.644;2024-01-10T12:04:54;-3.20;99.90
18648;DHT22;9453;50.294;18.644;2024-01-10T12:07:23;-3.10;99.90
18648;DHT22;9453;50.294;18.644;2024-01-10T12:09:50;-3.10;99.90
18648;DHT22;9453;50.294;18.644;2024-01-10T12:12:17;-3.00;99.90
18648;DHT22;9453;50.294;18.644;2024-01-10T12:14:44;-3.00;99.90
18648;DHT22;9453;50.294;18.644;2024-01-10T12:17:11;-3.00;99.90
18648;DHT22;9453;50.294;18.644;2024-01-10T12:19:38;-2.90;99.90
18648;DHT22;9453;50.294;18.644;2024-01-10T12:22:06;-2.70;99.90
18648;DHT22;9453;50.294;18.644;2024-01-10T12:24:42;-2.70;99.90
18648;DHT22;9453;50.294;18.644;2024-01-10T12:27:10;-2.70;99.90
18648;DHT22;9453;50.294;18.644;2024-01-10T12:29:38;-2.70;99.90
18648;DHT22;9453;50.294;18.644;2024-01-10T12:32:05;-2.70;99.90
18648;DHT22;9453;50.294;18.644;2024-01-10T12:34:38;-2.70;99.90
18648;DHT22;9453;50.294;18.644;2024-01-10T12:37:05;-2.60;99.90
18648;DHT22;9453;50.294;18.644;2024-01-10T12:39:32;-2.60;99.90
18648;DHT22;9453;50.294;18.644;2024-01-10T12:42:01;-2.50;99.90
18648;DHT22;9453;50.294;18.644;2024-01-10T12:44:30;-2.50;99.90
18648;DHT22;9453;50.294;18.644;2024-01-10T12:46:57;-2.50;99.90
18648;DHT22;9453;50.294;18.644;2024-01-10T12:49:25;-2.40;99.90
18648;DHT22;9453;50.294;18.644;2024-01-10T12:51:52;-2.40;99.90
18648;DHT22;9453;50.294;18.644;2024-01-10T12:54:19;-2.30;99.90
18648;DHT22;9453;50.294;18.644;2024-01-10T12:56:46;-2.30;99.90
18648;DHT22;9453;50.294;18.644;2024-01-10T12:59:14;-2.30;99.90
18648;DHT22;9453;50.294;18.644;2024-01-10T13:01:41;-2.30;99.90
18648;DHT22;9453;50.294;18.644;2024-01-10T13:04:08;-2.30;99.90
18648;DHT22;9453;50.294;18.644;2024-01-10T13:06:35;-2.30;99.90
18648;DHT22;9453;50.294;18.644;2024-01-10T13:09:02;-2.30;99.90
18648;DHT22;9453;50.294;18.644;2024-01-10T13:11:31;-2.20;99.90
18648;DHT22;9453;50.294;18.644;2024-01-10T13:13:58;-2.20;99.90
18648;DHT22;9453;50.294;18.644;2024-01-10T13:16:27;-2.20;99.90
18648;DHT22;9453;50.294;18.644;2024-01-10T13:18:54;-2.20;99.90
18648;DHT22;9453;50.294;18.644;2024-01-10T13:21:23;-2.20;99.90
18648;DHT22;9453;50.294;18.644;2024-01-10T13:23:50;-2.10;99.90
18648;DHT22;9453;50.294;18.644;2024-01-10T13:26:17;-2.10;99.90
18648;DHT22;9453;50.294;18.644;2024-01-10T13:28:43;-2.10;99.90
18648;DHT22;9453;50.294;18.644;2024-01-10T13:31:10;-2.20;99.90
18648;DHT22;9453;50.294;18.644;2024-01-10T13:33:42;-2.20;99.90
18648;DHT22;9453;50.294;18.644;2024-01-10T13:36:09;-2.20;99.90
18648;DHT22;9453;50.294;18.644;2024-01-10T13:38:36;-2.10;99.90
18648;DHT22;9453;50.294;18.644;2024-01-10T13:41:03;-2.20;99.90
18648;DHT22;9453;50.294;18.644;2024-01-10T13:43:31;-2.20;99.90
18648;DHT22;9453;50.294;18.644;2024-01-10T13:45:57;-2.20;99.90
18648;DHT22;9453;50.294;18.644;2024-01-10T13:48:24;-2.30;99.90
18648;DHT22;9453;50.294;18.644;2024-01-10T13:50:53;-2.20;99.90
18648;DHT22;9453;50.294;18.644;2024-01-10T13:53:20;-2.30;99.90
18648;DHT22;9453;50.294;18.644;2024-01-10T13:55:47;-2.30;99.90
18648;DHT22;9453;50.294;18.644;2024-01-10T13:58:15;-2.30;99.90
18648;DHT22;9453;50.294;18.644;2024-01-10T14:00:44;-2.20;99.90
18648;DHT22;9453;50.294;18.644;2024-01-10T14:03:12;-2.30;99.90
18648;DHT22;9453;50.294;18.644;2024-01-10T14:05:39;-2.30;99.90
18648;DHT22;9453;50.294;18.644;2024-01-10T14:08:08;-2.40;99.90
18648;DHT22;9453;50.294;18.644;2024-01-10T14:10:35;-2.30;99.90
18648;DHT22;9453;50.294;18.644;2024-01-10T14:13:04;-2.30;99.90
18648;DHT22;9453;50.294;18.644;2024-01-10T14:15:31;-2.40;99.90
18648;DHT22;9453;50.294;18.644;2024-01-10T14:17:58;-2.40;99.90
18648;DHT22;9453;50.294;18.644;2024-01-10T14:20:25;-2.40;99.90
18648;DHT22;9453;50.294;18.644;2024-01-10T14:22:52;-2.40;99.90
18648;DHT22;9453;50.294;18.644;2024-01-10T14:25:20;-2.50;99.90
18648;DHT22;9453;50.294;18.644;2024-01-10T14:27:47;-2.60;99.90
18648;DHT22;9453;50.294;18.644;2024-01-10T14:30:14;-2.70;99.90
18648;DHT22;9453;50.294;18.644;2024-01-10T14:32:42;-2.70;99.90
18648;DHT22;9453;50.294;18.644;2024-01-10T14:35:08;-2.80;99.90
18648;DHT22;9453;50.294;18.644;2024-01-10T14:37:35;-2.80;99.90
18648;DHT22;9453;50.294;18.644;2024-01-10T14:40:03;-2.80;99.90
18648;DHT22;9453;50.294;18.644;2024-01-10T14:42:33;-2.90;99.90
18648;DHT22;9453;50.294;18.644;2024-01-10T14:45:00;-2.90;99.90
18648;DHT22;9453;50.294;18.644;2024-01-10T14:47:29;-3.00;99.90
18648;DHT22;9453;50.294;18.644;2024-01-10T14:49:56;-3.00;99.90
18648;DHT22;9453;50.294;18.644;2024-01-10T14:52:24;-3.10;99.90
18648;DHT22;9453;50.294;18.644;2024-01-10T14:54:51;-3.10;99.90
18648;DHT22;9453;50.294;18.644;2024-01-10T14:57:18;-3.20;99.90
18648;DHT22;9453;50.294;18.644;2024-01-10T14:59:47;-3.20;99.90
18648;DHT22;9453;50.294;18.644;2024-01-10T15:02:15;-3.30;99.90
18648;DHT22;9453;50.294;18.644;2024-01-10T15:04:44;-3.30;99.90
18648;DHT22;9453;50.294;18.644;2024-01-10T15:07:12;-3.40;99.90
18648;DHT22;9453;50.294;18.644;2024-01-10T15:09:39;-3.40;99.90
18648;DHT22;9453;50.294;18.644;2024-01-10T15:12:06;-3.40;99.90
18648;DHT22;9453;50.294;18.644;2024-01-10T15:14:34;-3.50;99.90
18648;DHT22;9453;50.294;18.644;2024-01-10T15:17:03;-3.60;99.90
18648;DHT22;9453;50.294;18.644;2024-01-10T15:19:33;-3.60;99.90
18648;DHT22;9453;50.294;18.644;2024-01-10T15:22:01;-3.80;99.90
18648;DHT22;9453;50.294;18.644;2024-01-10T15:24:29;-3.70;99.90
18648;DHT22;9453;50.294;18.644;2024-01-10T15:26:56;-3.70;99.90
18648;DHT22;9453;50.294;18.644;2024-01-10T15:29:27;-3.70;99.90
18648;DHT22;9453;50.294;18.644;2024-01-10T15:31:54;-3.80;99.90
18648;DHT22;9453;50.294;18.644;2024-01-10T15:34:22;-3.90;99.90
18648;DHT22;9453;50.294;18.644;2024-01-10T15:36:51;-3.90;99.90
18648;DHT22;9453;50.294;18.644;2024-01-10T15:39:18;-4.00;99.90
18648;DHT22;9453;50.294;18.644;2024-01-10T15:41:47;-4.00;99.90
18648;DHT22;9453;50.294;18.644;2024-01-10T15:44:14;-4.10;99.90
18648;DHT22;9453;50.294;18.644;2024-01-10T15:46:41;-4.10;99.90
18648;DHT22;9453;50.294;18.644;2024-01-10T15:49:09;-4.10;99.90
18648;DHT22;9453;50.294;18.644;2024-01-10T15:51:37;-4.20;99.90
18648;DHT22;9453;50.294;18.644;2024-01-10T15:54:05;-4.30;99.90
18648;DHT22;9453;50.294;18.644;2024-01-10T15:56:32;-4.40;99.90
18648;DHT22;9453;50.294;18.644;2024-01-10T15:59:04;-4.50;99.90
18648;DHT22;9453;50.294;18.644;2024-01-10T16:01:32;-4.50;99.90
18648;DHT22;9453;50.294;18.644;2024-01-10T16:03:59;-4.60;99.90
18648;DHT22;9453;50.294;18.644;2024-01-10T16:06:27;-4.80;99.90
18648;DHT22;9453;50.294;18.644;2024-01-10T16:08:55;-4.70;99.90
18648;DHT22;9453;50.294;18.644;2024-01-10T16:11:22;-4.80;99.90
18648;DHT22;9453;50.294;18.644;2024-01-10T16:13:50;-4.80;99.90
18648;DHT22;9453;50.294;18.644;2024-01-10T16:16:21;-4.80;99.90
18648;DHT22;9453;50.294;18.644;2024-01-10T16:18:48;-4.80;99.90
18648;DHT22;9453;50.294;18.644;2024-01-10T16:21:15;-4.80;99.90
18648;DHT22;9453;50.294;18.644;2024-01-10T16:23:42;-4.90;99.90
18648;DHT22;9453;50.294;18.644;2024-01-10T16:26:11;-4.90;99.90
18648;DHT22;9453;50.294;18.644;2024-01-10T16:28:38;-5.00;99.90
18648;DHT22;9453;50.294;18.644;2024-01-10T16:31:05;-5.10;99.90
18648;DHT22;9453;50.294;18.644;2024-01-10T16:33:31;-5.10;99.90
18648;DHT22;9453;50.294;18.644;2024-01-10T16:35:58;-5.00;99.90
18648;DHT22;9453;50.294;18.644;2024-01-10T16:38:26;-5.20;99.90
18648;DHT22;9453;50.294;18.644;2024-01-10T16:40:54;-5.20;99.90
18648;DHT22;9453;50.294;18.644;2024-01-10T16:43:23;-5.10;99.90
18648;DHT22;9453;50.294;18.644;2024-01-10T16:45:50;-5.20;99.90
18648;DHT22;9453;50.294;18.644;2024-01-10T16:48:17;-5.20;99.90
18648;DHT22;9453;50.294;18.644;2024-01-10T16:50:44;-5.30;99.90
18648;DHT22;9453;50.294;18.644;2024-01-10T16:53:11;-5.30;99.90
18648;DHT22;9453;50.294;18.644;2024-01-10T16:55:40;-5.20;99.90
18648;DHT22;9453;50.294;18.644;2024-01-10T16:58:07;-5.30;99.90
18648;DHT22;9453;50.294;18.644;2024-01-10T17:00:36;-5.30;99.90
18648;DHT22;9453;50.294;18.644;2024-01-10T17:03:03;-5.30;99.90
18648;DHT22;9453;50.294;18.644;2024-01-10T17:05:30;-5.40;99.90
18648;DHT22;9453;50.294;18.644;2024-01-10T17:07:57;-5.40;99.90
18648;DHT22;9453;50.294;18.644;2024-01-10T17:10:24;-5.40;99.90
18648;DHT22;9453;50.294;18.644;2024-01-10T17:12:51;-5.40;99.90
18648;DHT22;9453;50.294;18.644;2024-01-10T17:15:19;-5.40;99.90
18648;DHT22;9453;50.294;18.644;2024-01-10T17:17:47;-5.40;99.90
18648;DHT22;9453;50.294;18.644;2024-01-10T17:20:14;-5.60;99.90
18648;DHT22;9453;50.294;18.644;2024-01-10T17:22:42;-5.70;99.90
18648;DHT22;9453;50.294;18.644;2024-01-10T17:25:09;-5.80;99.90
18648;DHT22;9453;50.294;18.644;2024-01-10T17:27:37;-5.80;99.90
18648;DHT22;9453;50.294;18.644;2024-01-10T17:30:05;-5.70;99.90
18648;DHT22;9453;50.294;18.644;2024-01-10T17:32:32;-5.70;99.90
18648;DHT22;9453;50.294;18.644;2024-01-10T17:35:01;-5.70;99.90
18648;DHT22;9453;50.294;18.644;2024-01-10T17:37:28;-5.70;99.90
18648;DHT22;9453;50.294;18.644;2024-01-10T17:39:56;-5.80;99.90
18648;DHT22;9453;50.294;18.644;2024-01-10T17:42:22;-5.80;99.90
18648;DHT22;9453;50.294;18.644;2024-01-10T17:44:49;-5.80;99.90
18648;DHT22;9453;50.294;18.644;2024-01-10T17:47:16;-5.80;99.90
18648;DHT22;9453;50.294;18.644;2024-01-10T17:49:43;-5.80;99.90
18648;DHT22;9453;50.294;18.644;2024-01-10T17:52:12;-5.80;99.90
18648;DHT22;9453;50.294;18.644;2024-01-10T17:54:39;-5.80;99.90
18648;DHT22;9453;50.294;18.644;2024-01-10T17:57:06;-5.80;99.90
18648;DHT22;9453;50.294;18.644;2024-01-10T17:59:33;-5.80;99.90
18648;DHT22;9453;50.294;18.644;2024-01-10T18:02:00;-5.80;99.90
18648;DHT22;9453;50.294;18.644;2024-01-10T18:04:27;-5.80;99.90
18648;DHT22;9453;50.294;18.644;2024-01-10T18:06:55;-5.90;99.90
18648;DHT22;9453;50.294;18.644;2024-01-10T18:09:24;-6.00;99.90
18648;DHT22;9453;50.294;18.644;2024-01-10T18:11:51;-6.10;99.90
18648;DHT22;9453;50.294;18.644;2024-01-10T18:14:17;-6.10;99.90
18648;DHT22;9453;50.294;18.644;2024-01-10T18:16:44;-6.10;99.90
18648;DHT22;9453;50.294;18.644;2024-01-10T18:19:11;-6.20;99.90
18648;DHT22;9453;50.294;18.644;2024-01-10T18:21:40;-6.20;99.90
18648;DHT22;9453;50.294;18.644;2024-01-10T18:24:07;-6.30;99.90
18648;DHT22;9453;50.294;18.644;2024-01-10T18:26:36;-6.20;99.90
18648;DHT22;9453;50.294;18.644;2024-01-10T18:29:03;-6.10;99.90
18648;DHT22;9453;50.294;18.644;2024-01-10T18:31:31;-6.10;99.90
18648;DHT22;9453;50.294;18.644;2024-01-10T18:33:58;-6.20;99.90
18648;DHT22;9453;50.294;18.644;2024-01-10T18:36:25;-6.20;99.90
18648;DHT22;9453;50.294;18.644;2024-01-10T18:38:51;-6.30;99.90
18648;DHT22;9453;50.294;18.644;2024-01-10T18:41:18;-6.40;99.90
18648;DHT22;9453;50.294;18.644;2024-01-10T18:43:47;-6.30;99.90
18648;DHT22;9453;50.294;18.644;2024-01-10T18:46:14;-6.20;99.90
18648;DHT22;9453;50.294;18.644;2024-01-10T18:48:41;-6.20;99.90
18648;DHT22;9453;50.294;18.644;2024-01-10T18:51:08;-6.20;99.90
18648;DHT22;9453;50.294;18.644;2024-01-10T18:53:35;-6.20;99.90
18648;DHT22;9453;50.294;18.644;2024-01-10T18:56:02;-6.20;99.90
18648;DHT22;9453;50.294;18.644;2024-01-10T18:58:29;-6.10;99.90
18648;DHT22;9453;50.294;18.644;2024-01-10T19:00:58;-6.20;99.90
18648;DHT22;9453;50.294;18.644;2024-01-10T19:03:25;-6.20;99.90
18648;DHT22;9453;50.294;18.644;2024-01-10T19:05:52;-6.30;99.90
18648;DHT22;9453;50.294;18.644;2024-01-10T19:08:19;-6.30;99.90
18648;DHT22;9453;50.294;18.644;2024-01-10T19:10:45;-6.40;99.90
18648;DHT22;9453;50.294;18.644;2024-01-10T19:13:12;-6.40;99.90
18648;DHT22;9453;50.294;18.644;2024-01-10T19:15:39;-6.40;99.90
18648;DHT22;9453;50.294;18.644;2024-01-10T19:18:08;-6.40;99.90
18648;DHT22;9453;50.294;18.644;2024-01-10T19:20:35;-6.30;99.90
18648;DHT22;9453;50.294;18.644;2024-01-10T19:23:02;-6.30;99.90
18648;DHT22;9453;50.294;18.644;2024-01-10T19:25:29;-6.30;99.90
18648;DHT22;9453;50.294;18.644;2024-01-10T19:27:56;-6.30;99.90
18648;DHT22;9453;50.294;18.644;2024-01-10T19:30:23;-6.20;99.90
18648;DHT22;9453;50.294;18.644;2024-01-10T19:32:50;-6.20;99.90
18648;DHT22;9453;50.294;18.644;2024-01-10T19:35:18;-6.20;99.90
18648;DHT22;9453;50.294;18.644;2024-01-10T19:37:45;-6.20;99.90
18648;DHT22;9453;50.294;18.644;2024-01-10T19:40:12;-6.20;99.90
18648;DHT22;9453;50.294;18.644;2024-01-10T19:42:39;-6.10;99.90
18648;DHT22;9453;50.294;18.644;2024-01-10T19:45:08;-6.20;99.90
18648;DHT22;9453;50.294;18.644;2024-01-10T19:47:35;-6.30;99.90
18648;DHT22;9453;50.294;18.644;2024-01-10T19:50:02;-6.20;99.90
18648;DHT22;9453;50.294;18.644;2024-01-10T19:52:30;-6.20;99.90
18648;DHT22;9453;50.294;18.644;2024-01-10T19:54:57;-6.20;99.90
18648;DHT22;9453;50.294;18.644;2024-01-10T19:57:24;-6.30;99.90
18648;DHT22;9453;50.294;18.644;2024-01-10T19:59:51;-6.30;99.90
18648;DHT22;9453;50.294;18.644;2024-01-10T20:02:18;-6.20;99.90
18648;DHT22;9453;50.294;18.644;2024-01-10T20:04:47;-6.30;99.90
18648;DHT22;9453;50.294;18.644;2024-01-10T20:07:15;-6.20;99.90
18648;DHT22;9453;50.294;18.644;2024-01-10T20:09:43;-6.30;99.90
18648;DHT22;9453;50.294;18.644;2024-01-10T20:12:11;-6.40;99.90
18648;DHT22;9453;50.294;18.644;2024-01-10T20:14:40;-6.40;99.90
18648;DHT22;9453;50.294;18.644;2024-01-10T20:17:08;-6.30;99.90
18648;DHT22;9453;50.294;18.644;2024-01-10T20:19:34;-6.30;99.90
18648;DHT22;9453;50.294;18.644;2024-01-10T20:22:01;-6.30;99.90
18648;DHT22;9453;50.294;18.644;2024-01-10T20:24:28;-6.30;99.90
18648;DHT22;9453;50.294;18.644;2024-01-10T20:26:57;-6.30;99.90
18648;DHT22;9453;50.294;18.644;2024-01-10T20:29:23;-6.40;99.90
18648;DHT22;9453;50.294;18.644;2024-01-10T20:31:51;-6.50;99.90
18648;DHT22;9453;50.294;18.644;2024-01-10T20:34:18;-6.50;99.90
18648;DHT22;9453;50.294;18.644;2024-01-10T20:36:45;-6.70;99.90
18648;DHT22;9453;50.294;18.644;2024-01-10T20:39:15;-6.90;99.90